Time;durP1;ratioP1;P1;durP2;ratioP2;P2;SDS_P1;SDS_P2;PMS_P1;PMS_P2;Temp;Humidity;BMP_temperature;BMP_pressure;BME280_temperature;BME280_humidity;BME280_pressure;Samples;Min_cycle;Max_cycle;Signal;HPM_P1;HPM_P2
2021/10/09 00:00:34;;;;;;;70.88;38.75;;;11.20;99.90;;;;;;4974834;28;20035;-72
2021/10/09 00:02:59;;;;;;;73.80;39.17;;;11.10;99.90;;;;;;4974313;28;20027;-72
2021/10/09 00:05:25;;;;;;;57.42;35.28;;;11.00;99.90;;;;;;4974778;28;20422;-72
2021/10/09 00:07:51;;;;;;;61.42;36.17;;;10.80;99.90;;;;;;4974580;28;20027;-72
2021/10/09 00:10:27;;;;;;;53.45;32.40;;;10.80;99.90;;;;;;4973456;28;20023;-72
2021/10/09 00:12:54;;;;;;;60.63;36.22;;;10.70;99.90;;;;;;4973451;28;20509;-71
2021/10/09 00:15:20;;;;;;;52.45;30.88;;;10.70;99.90;;;;;;4974872;28;20022;-72
2021/10/09 00:17:45;;;;;;;51.25;30.27;;;10.60;99.90;;;;;;4972986;28;20068;-72
2021/10/09 00:20:11;;;;;;;55.35;31.35;;;10.50;99.90;;;;;;4974750;28;20030;-71
2021/10/09 00:22:37;;;;;;;48.65;28.88;;;10.40;99.90;;;;;;4974566;28;20033;-72
2021/10/09 00:25:04;;;;;;;47.47;28.20;;;10.30;99.90;;;;;;4974046;28;20633;-72
2021/10/09 00:27:30;;;;;;;51.72;28.35;;;10.10;99.90;;;;;;4972706;28;20045;-71
2021/10/09 00:29:55;;;;;;;44.55;27.40;;;10.00;99.90;;;;;;4989392;28;20110;-71
2021/10/09 00:32:21;;;;;;;42.20;25.13;;;9.90;99.90;;;;;;4973211;28;20451;-71
2021/10/09 00:34:46;;;;;;;37.83;24.40;;;9.80;99.90;;;;;;4974255;28;20033;-71
2021/10/09 00:37:12;;;;;;;37.70;23.13;;;9.60;99.90;;;;;;4972995;28;20029;-71
2021/10/09 00:39:37;;;;;;;36.35;23.52;;;9.50;99.90;;;;;;4974604;28;20033;-71
2021/10/09 00:42:05;;;;;;;31.13;22.00;;;9.40;99.90;;;;;;4974291;28;20106;-71
2021/10/09 00:44:30;;;;;;;33.63;20.75;;;9.30;99.90;;;;;;4973909;28;20082;-71
2021/10/09 00:47:00;;;;;;;29.70;20.73;;;9.10;99.90;;;;;;4974213;28;20030;-71
2021/10/09 00:49:26;;;;;;;34.78;22.92;;;9.00;99.90;;;;;;4974458;28;20544;-71
2021/10/09 00:51:53;;;;;;;37.42;24.25;;;8.90;99.90;;;;;;4969906;28;20043;-71
2021/10/09 00:54:19;;;;;;;37.72;24.35;;;8.90;99.90;;;;;;4969283;28;20034;-71
2021/10/09 00:56:47;;;;;;;35.30;24.92;;;8.80;99.90;;;;;;4968653;28;20028;-71
2021/10/09 00:59:13;;;;;;;38.80;23.60;;;8.70;99.90;;;;;;4953712;29;20077;-71
2021/10/09 01:01:41;;;;;;;35.83;23.98;;;8.60;99.90;;;;;;4966011;28;20493;-71
2021/10/09 01:04:08;;;;;;;43.80;25.42;;;8.60;99.90;;;;;;4974466;28;20117;-71
2021/10/09 01:06:34;;;;;;;33.95;21.73;;;8.50;99.90;;;;;;4972368;28;20031;-71
2021/10/09 01:09:05;;;;;;;32.45;21.20;;;8.40;99.90;;;;;;4974104;28;20033;-71
2021/10/09 01:11:31;;;;;;;35.72;23.60;;;8.30;99.90;;;;;;4957236;28;20367;-71
2021/10/09 01:13:56;;;;;;;36.42;22.95;;;8.20;99.90;;;;;;4974057;28;20102;-71
2021/10/09 01:16:24;;;;;;;36.08;24.45;;;8.10;99.90;;;;;;4974352;28;20506;-71
2021/10/09 01:18:52;;;;;;;32.70;23.13;;;8.10;99.90;;;;;;4958024;28;20031;-71
2021/10/09 01:21:18;;;;;;;31.17;23.10;;;8.00;99.90;;;;;;4972327;28;20533;-71
2021/10/09 01:23:44;;;;;;;28.85;19.40;;;7.90;99.90;;;;;;4973417;28;20062;-71
2021/10/09 01:26:10;;;;;;;35.00;20.88;;;7.90;99.90;;;;;;4973984;28;20427;-71
2021/10/09 01:28:37;;;;;;;30.15;21.75;;;7.80;99.90;;;;;;4973783;28;20448;-71
2021/10/09 01:31:03;;;;;;;27.65;18.40;;;7.70;99.90;;;;;;4972675;28;20062;-71
2021/10/09 01:33:29;;;;;;;29.45;18.95;;;7.60;99.90;;;;;;4973724;28;20454;-71
2021/10/09 01:35:56;;;;;;;25.08;18.30;;;7.50;99.90;;;;;;4973134;28;20037;-71
2021/10/09 01:38:25;;;;;;;25.83;17.40;;;7.50;99.90;;;;;;4973586;28;20023;-71
2021/10/09 01:40:50;;;;;;;18.38;13.25;;;7.40;99.90;;;;;;4974052;28;20031;-71
2021/10/09 01:43:19;;;;;;;17.55;11.93;;;7.30;99.90;;;;;;4974089;28;20126;-71
2021/10/09 01:45:46;;;;;;;18.38;11.90;;;7.20;99.90;;;;;;4973850;28;20061;-72
2021/10/09 01:48:12;;;;;;;15.63;11.40;;;7.20;99.90;;;;;;4973602;28;20054;-71
2021/10/09 01:50:39;;;;;;;18.75;12.57;;;7.20;99.90;;;;;;4977349;28;20035;-71
2021/10/09 01:53:05;;;;;;;18.88;12.75;;;7.20;99.90;;;;;;4975909;28;20042;-71
2021/10/09 01:55:32;;;;;;;20.50;14.02;;;7.20;99.90;;;;;;4977245;28;20517;-71
2021/10/09 01:57:58;;;;;;;23.83;14.80;;;7.20;99.90;;;;;;4977177;28;20027;-71
2021/10/09 02:00:24;;;;;;;21.35;12.68;;;7.20;99.90;;;;;;4977245;28;20474;-71
2021/10/09 02:02:50;;;;;;;15.02;10.73;;;7.20;99.90;;;;;;4976576;28;20027;-71
2021/10/09 02:05:16;;;;;;;12.48;9.57;;;7.20;99.90;;;;;;4977590;28;20072;-71
2021/10/09 02:07:42;;;;;;;12.05;8.98;;;7.20;99.90;;;;;;4976964;28;20098;-71
2021/10/09 02:10:08;;;;;;;9.88;8.35;;;7.10;99.90;;;;;;4976392;28;20545;-71
2021/10/09 02:12:34;;;;;;;12.02;8.38;;;7.10;99.90;;;;;;4976918;28;20386;-72
2021/10/09 02:27:59;;;;;;;11.18;9.25;;;6.90;99.90;;;;;;4976926;28;20114;-71
2021/10/09 02:30:25;;;;;;;13.65;10.48;;;7.00;99.90;;;;;;4976757;28;20154;-72
2021/10/09 02:32:51;;;;;;;11.13;9.38;;;7.00;99.90;;;;;;4976442;28;20081;-71
2021/10/09 02:35:17;;;;;;;11.55;10.18;;;7.00;99.90;;;;;;4975909;28;20035;-71
2021/10/09 02:37:42;;;;;;;10.00;8.57;;;7.00;99.90;;;;;;4975205;28;20027;-71
2021/10/09 02:40:09;;;;;;;10.20;8.60;;;7.00;99.90;;;;;;4976408;28;20450;-71
2021/10/09 02:42:34;;;;;;;8.88;7.70;;;7.00;99.90;;;;;;4976372;28;20026;-71
2021/10/09 02:45:00;;;;;;;9.77;8.77;;;7.00;99.90;;;;;;4976314;28;20451;-71
2021/10/09 02:47:25;;;;;;;9.70;8.13;;;7.00;99.90;;;;;;4975956;28;20033;-71
2021/10/09 02:49:51;;;;;;;10.68;8.65;;;7.00;99.90;;;;;;4975964;28;20034;-71
2021/10/09 02:52:16;;;;;;;8.70;7.80;;;7.00;99.90;;;;;;4976511;28;20037;-71
2021/10/09 02:54:42;;;;;;;8.63;7.72;;;7.00;99.90;;;;;;4976322;28;20039;-71
2021/10/09 02:57:07;;;;;;;10.15;9.07;;;6.90;99.90;;;;;;4976084;28;20394;-71
2021/10/09 02:59:33;;;;;;;11.80;10.40;;;6.90;99.90;;;;;;4975734;28;20077;-71
2021/10/09 03:01:58;;;;;;;9.75;8.60;;;6.90;99.90;;;;;;4974296;28;20065;-71
2021/10/09 03:04:24;;;;;;;11.85;9.20;;;6.90;99.90;;;;;;4976474;28;20085;-71
2021/10/09 03:06:49;;;;;;;10.63;9.13;;;6.90;99.90;;;;;;4976168;28;20031;-71
2021/10/09 03:09:15;;;;;;;11.88;9.32;;;6.90;99.90;;;;;;4974012;28;20030;-71
2021/10/09 03:11:40;;;;;;;9.68;8.55;;;6.90;99.90;;;;;;4973624;28;20031;-71
2021/10/09 03:14:06;;;;;;;13.55;10.05;;;6.90;99.90;;;;;;4974981;28;20047;-71
2021/10/09 03:16:31;;;;;;;11.65;9.98;;;6.80;99.90;;;;;;4973162;28;20062;-71
2021/10/09 03:18:57;;;;;;;14.25;9.77;;;6.80;99.90;;;;;;4958990;28;20023;-71
2021/10/09 03:21:23;;;;;;;13.57;10.13;;;6.80;99.90;;;;;;4956259;28;20025;-71
2021/10/09 03:23:48;;;;;;;14.70;11.82;;;6.80;99.90;;;;;;4967679;28;20397;-71
2021/10/09 03:26:14;;;;;;;14.80;11.20;;;6.80;99.90;;;;;;4975503;28;20034;-71
2021/10/09 03:28:39;;;;;;;14.23;10.90;;;6.70;99.90;;;;;;4973806;28;20114;-71
2021/10/09 03:31:05;;;;;;;12.60;10.50;;;6.70;99.90;;;;;;4956018;28;20483;-71
2021/10/09 03:33:30;;;;;;;28.25;10.05;;;6.60;99.90;;;;;;4956000;29;20442;-71
2021/10/09 03:35:56;;;;;;;12.35;9.98;;;6.60;99.90;;;;;;4969985;28;20438;-71
2021/10/09 03:38:22;;;;;;;10.23;9.13;;;6.50;99.90;;;;;;4975091;28;20484;-71
2021/10/09 03:40:52;;;;;;;9.63;8.63;;;6.50;99.90;;;;;;4973846;28;20030;-71
2021/10/09 03:43:21;;;;;;;9.50;8.50;;;6.50;99.90;;;;;;4975494;28;20084;-71
2021/10/09 03:48:20;;;;;;;14.65;8.75;;;6.40;99.90;;;;;;4974821;28;20026;-71
2021/10/09 03:53:30;;;;;;;;;;;6.40;99.90;;;;;;4973545;28;20042;-71
2021/10/09 03:55:55;;;;;;;9.73;8.65;;;6.30;99.90;;;;;;4989406;28;20269;-71
2021/10/09 03:58:21;;;;;;;11.38;10.13;;;6.30;99.90;;;;;;4971522;28;20023;-71
2021/10/09 04:00:46;;;;;;;12.70;10.80;;;6.30;99.90;;;;;;4974871;28;20023;-71
2021/10/09 04:03:12;;;;;;;13.98;10.18;;;6.20;99.90;;;;;;4971365;28;20106;-71
2021/10/09 04:05:37;;;;;;;12.98;9.43;;;6.10;99.90;;;;;;4989715;28;20026;-71
2021/10/09 04:08:07;;;;;;;13.93;9.80;;;6.10;99.90;;;;;;4974104;28;20039;-71
2021/10/09 04:10:37;;;;;;;12.80;9.68;;;6.00;99.90;;;;;;4974393;28;20031;-71
2021/10/09 04:13:02;;;;;;;17.15;10.82;;;5.90;99.90;;;;;;4959715;28;20027;-71
2021/10/09 04:15:29;;;;;;;22.92;14.20;;;5.90;99.90;;;;;;4955126;28;20027;-71
2021/10/09 04:17:54;;;;;;;27.35;15.90;;;5.90;99.90;;;;;;4962337;28;20102;-71
2021/10/09 04:20:20;;;;;;;21.63;15.05;;;5.90;99.90;;;;;;4973325;28;20027;-71
2021/10/09 04:22:45;;;;;;;27.20;16.23;;;6.00;99.90;;;;;;4974552;28;20023;-71
2021/10/09 04:25:11;;;;;;;27.10;16.77;;;6.00;99.90;;;;;;4972275;28;20027;-71
2021/10/09 04:27:37;;;;;;;29.27;17.45;;;6.00;99.90;;;;;;4974058;28;20041;-71
2021/10/09 04:30:05;;;;;;;30.67;17.45;;;5.90;99.90;;;;;;4971613;28;20080;-71
2021/10/09 04:32:31;;;;;;;30.02;18.60;;;5.90;99.90;;;;;;4974453;28;20034;-71
2021/10/09 04:34:57;;;;;;;25.85;15.57;;;5.90;99.90;;;;;;4974336;28;20026;-71
2021/10/09 04:37:22;;;;;;;21.50;15.02;;;5.80;99.90;;;;;;4974639;28;20027;-71
2021/10/09 04:39:48;;;;;;;19.77;13.50;;;5.80;99.90;;;;;;4973948;28;20049;-71
2021/10/09 04:42:13;;;;;;;20.20;13.23;;;5.70;99.90;;;;;;4974168;28;20019;-71
2021/10/09 04:44:39;;;;;;;26.60;15.75;;;5.70;99.90;;;;;;4974404;28;20038;-71
2021/10/09 04:47:05;;;;;;;26.35;15.82;;;5.70;99.90;;;;;;4974528;28;20030;-71
2021/10/09 04:49:31;;;;;;;21.83;14.40;;;5.70;99.90;;;;;;4974124;28;20027;-71
2021/10/09 04:51:56;;;;;;;18.02;13.07;;;5.70;99.90;;;;;;4974605;28;20121;-71
2021/10/09 04:54:22;;;;;;;17.80;11.88;;;5.60;99.90;;;;;;4973506;28;20106;-71
2021/10/09 04:56:48;;;;;;;19.33;10.77;;;5.50;99.90;;;;;;4974419;28;20437;-71
2021/10/09 04:59:13;;;;;;;18.13;11.38;;;5.40;99.90;;;;;;4973994;28;20023;-71
2021/10/09 05:01:39;;;;;;;21.27;12.93;;;5.40;99.90;;;;;;4971717;28;20114;-71
2021/10/09 05:04:04;;;;;;;23.30;14.00;;;5.40;99.90;;;;;;4974205;28;20110;-71
2021/10/09 05:06:30;;;;;;;21.52;12.32;;;5.40;99.90;;;;;;4964944;28;20435;-71
2021/10/09 05:08:55;;;;;;;18.45;11.85;;;5.40;99.90;;;;;;4954860;29;20059;-71
2021/10/09 05:11:21;;;;;;;27.90;13.70;;;5.30;99.90;;;;;;4958789;28;20034;-71
2021/10/09 05:13:46;;;;;;;26.73;15.90;;;5.30;99.90;;;;;;4954265;28;20034;-71
2021/10/09 05:16:12;;;;;;;25.25;14.48;;;5.30;99.90;;;;;;4954858;28;20023;-72
2021/10/09 05:18:38;;;;;;;33.65;18.08;;;5.30;99.90;;;;;;4963608;28;20513;-70
2021/10/09 05:21:03;;;;;;;33.95;20.27;;;5.30;99.90;;;;;;4954866;28;20031;-71
2021/10/09 05:23:31;;;;;;;40.00;21.65;;;5.40;99.90;;;;;;4957021;28;20038;-72
2021/10/09 05:25:57;;;;;;;39.63;21.08;;;5.40;99.90;;;;;;4969827;28;20034;-72
2021/10/09 05:29:14;;;;;;;39.97;22.75;;;5.40;99.90;;;;;;4958673;29;20394;-72
2021/10/09 05:31:11;;;;;;;40.70;19.95;;;5.40;99.90;;;;;;4975445;28;20524;-72
2021/10/09 05:33:39;;;;;;;43.17;24.10;;;5.40;99.90;;;;;;4977511;28;20399;-72
2021/10/09 05:36:05;;;;;;;50.05;25.38;;;5.40;99.90;;;;;;4975745;28;20498;-72
2021/10/09 05:38:31;;;;;;;43.55;23.42;;;5.50;99.90;;;;;;4969158;28;20027;-72
2021/10/09 05:40:57;;;;;;;45.60;23.85;;;5.50;99.90;;;;;;4972778;28;20478;-71
2021/10/09 05:43:23;;;;;;;55.90;29.55;;;5.50;99.90;;;;;;4977632;28;20081;-72
2021/10/09 05:45:49;;;;;;;65.55;31.05;;;5.50;99.90;;;;;;4977192;28;20026;-72
2021/10/09 05:48:15;;;;;;;65.82;32.75;;;5.60;99.90;;;;;;4977292;28;20039;-71
2021/10/09 05:58:59;;;;;;;51.65;27.58;;;5.80;99.90;;;;;;4977253;28;20019;-70
2021/10/09 06:42:20;;;;;;;66.68;33.80;;;6.90;99.90;;;;;;4958099;28;20034;-68
2021/10/09 06:45:00;;;;;;;57.00;30.83;;;6.90;99.90;;;;;;4959444;28;20071;-68
2021/10/09 07:00:54;;;;;;;85.55;40.67;;;7.20;99.90;;;;;;4976222;28;20572;-68
2021/10/09 07:03:22;;;;;;;76.28;37.90;;;7.40;99.90;;;;;;4973754;28;20118;-68
2021/10/09 07:05:49;;;;;;;89.57;40.08;;;7.60;99.90;;;;;;4975961;28;20536;-68
2021/10/09 07:08:15;;;;;;;83.57;39.88;;;7.70;99.90;;;;;;4975273;28;20031;-68
2021/10/09 07:10:45;;;;;;;99.15;44.03;;;7.90;99.90;;;;;;4975976;28;20110;-68
2021/10/09 07:13:11;;;;;;;122.85;51.78;;;8.10;99.90;;;;;;4974354;28;20107;-68
2021/10/09 07:15:37;;;;;;;118.38;55.15;;;8.40;99.90;;;;;;4974530;28;20027;-68
2021/10/09 07:18:09;;;;;;;150.00;59.72;;;8.60;99.90;;;;;;4975616;28;20026;-68
2021/10/09 07:20:35;;;;;;;150.48;62.40;;;8.90;99.90;;;;;;4975051;28;20031;-69
2021/10/09 07:23:00;;;;;;;166.80;67.60;;;9.10;99.90;;;;;;4975566;28;20030;-68
2021/10/09 07:25:26;;;;;;;169.98;65.47;;;9.40;99.90;;;;;;4975434;28;20466;-68
2021/10/09 07:27:52;;;;;;;163.35;64.30;;;9.50;99.90;;;;;;4964073;28;20073;-68
2021/10/09 07:30:18;;;;;;;163.25;62.53;;;9.70;99.90;;;;;;4955635;28;20435;-68
2021/10/09 07:32:45;;;;;;;125.47;58.20;;;9.90;99.90;;;;;;4965264;28;20018;-68
2021/10/09 07:35:11;;;;;;;143.07;62.35;;;10.00;99.90;;;;;;4975292;28;20529;-69
2021/10/09 07:37:37;;;;;;;123.68;58.17;;;10.20;99.90;;;;;;4972409;28;20363;-68
2021/10/09 07:40:04;;;;;;;131.38;57.30;;;10.40;99.90;;;;;;4955958;28;20035;-68
2021/10/09 07:42:30;;;;;;;131.18;60.42;;;10.60;99.90;;;;;;4960686;28;20022;-68
2021/10/09 07:44:56;;;;;;;131.55;57.17;;;10.70;99.90;;;;;;4975376;28;20038;-68
2021/10/09 07:47:21;;;;;;;118.80;56.10;;;10.90;99.90;;;;;;4975109;28;20521;-68
2021/10/09 07:49:47;;;;;;;112.70;55.03;;;11.00;99.90;;;;;;4974567;28;20394;-68
2021/10/09 07:52:14;;;;;;;106.18;52.28;;;11.10;99.90;;;;;;4974733;28;20453;-68
2021/10/09 07:54:39;;;;;;;120.05;56.88;;;11.20;99.90;;;;;;4974949;28;20023;-68
2021/10/09 07:57:06;;;;;;;111.60;53.63;;;11.30;99.90;;;;;;4974880;28;20033;-68
2021/10/09 07:59:32;;;;;;;124.18;54.20;;;11.40;99.90;;;;;;4974980;28;20501;-68
2021/10/09 08:01:58;;;;;;;114.93;54.03;;;11.50;99.90;;;;;;4973866;28;20033;-68
2021/10/09 08:04:23;;;;;;;101.22;48.70;;;11.60;99.90;;;;;;4957361;28;20027;-68
2021/10/09 08:06:49;;;;;;;104.95;46.67;;;11.70;99.90;;;;;;4955495;29;20489;-68
2021/10/09 08:09:15;;;;;;;92.72;48.03;;;11.80;99.90;;;;;;4969058;28;20058;-68
2021/10/09 08:11:40;;;;;;;88.95;42.90;;;11.80;99.90;;;;;;4974496;28;20089;-68
2021/10/09 08:14:06;;;;;;;72.13;42.53;;;11.80;99.90;;;;;;4954884;28;20390;-68
2021/10/09 08:16:33;;;;;;;68.88;41.38;;;11.90;99.90;;;;;;4955666;28;20051;-68
2021/10/09 08:19:00;;;;;;;67.50;37.28;;;11.90;99.90;;;;;;4970184;28;20107;-68
2021/10/09 08:21:27;;;;;;;66.10;36.83;;;11.80;99.90;;;;;;4974599;28;20069;-68
2021/10/09 08:23:59;;;;;;;65.63;37.50;;;11.80;99.90;;;;;;4974153;28;20533;-68
2021/10/09 08:39:47;;;;;;;55.20;32.53;;;12.30;99.90;;;;;;4974777;28;19910;-68
2021/10/09 08:42:13;;;;;;;54.47;31.02;;;12.50;99.90;;;;;;4973620;28;20031;-68
2021/10/09 08:44:40;;;;;;;51.42;30.65;;;12.60;99.90;;;;;;4974278;28;20139;-69
2021/10/09 08:47:08;;;;;;;50.53;29.25;;;12.70;99.90;;;;;;4974432;28;20117;-68
2021/10/09 08:49:35;;;;;;;52.58;28.85;;;12.80;99.90;;;;;;4974260;28;20023;-68
2021/10/09 08:52:02;;;;;;;51.60;27.13;;;12.90;99.90;;;;;;4973914;28;20121;-69
2021/10/09 08:54:35;;;;;;;42.90;27.10;;;13.00;99.90;;;;;;4974081;28;20053;-69
2021/10/09 08:57:16;;;;;;;49.03;24.20;;;13.10;99.90;;;;;;4971417;28;20047;-68
2021/10/09 08:59:51;;;;;;;52.25;25.77;;;13.30;99.90;;;;;;4959520;28;20078;-68
2021/10/09 09:38:53;;;;;;;33.88;15.88;;;14.40;99.90;;;;;;4974579;28;20022;-68
2021/10/09 09:40:39;;;;;;;32.45;14.00;;;14.50;99.90;;;;;;4957987;28;20163;-68
2021/10/09 09:43:05;;;;;;;42.72;15.93;;;14.60;99.90;;;;;;4958433;28;20030;-68
2021/10/09 09:45:31;;;;;;;28.17;13.48;;;14.80;99.90;;;;;;4976584;28;20051;-68
2021/10/09 09:47:59;;;;;;;26.50;12.07;;;14.90;99.90;;;;;;4977125;28;20063;-68
2021/10/09 09:50:27;;;;;;;31.00;12.57;;;14.90;99.90;;;;;;4977038;28;20031;-68
2021/10/09 09:52:53;;;;;;;33.58;12.65;;;14.90;99.90;;;;;;4977376;28;20142;-68
2021/10/09 09:55:20;;;;;;;25.23;12.38;;;14.90;99.90;;;;;;4977222;28;20037;-68
2021/10/09 09:57:47;;;;;;;36.40;12.63;;;15.00;99.90;;;;;;4975015;28;20102;-68
2021/10/09 10:00:15;;;;;;;24.30;11.15;;;15.10;99.90;;;;;;4972344;28;20622;-68
2021/10/09 10:02:48;;;;;;;37.28;12.63;;;15.20;99.90;;;;;;4957833;28;20150;-68
2021/10/09 10:05:14;;;;;;;29.90;10.65;;;15.30;99.90;;;;;;4973247;28;20027;-68
2021/10/09 10:07:41;;;;;;;34.00;12.90;;;15.40;99.90;;;;;;4976998;28;20180;-69
2021/10/09 10:10:08;;;;;;;40.60;12.57;;;15.50;99.90;;;;;;4975385;28;20022;-68
2021/10/09 10:12:35;;;;;;;25.90;11.65;;;15.50;99.90;;;;;;4976222;28;20110;-68
2021/10/09 10:15:01;;;;;;;26.15;11.10;;;15.50;99.90;;;;;;4976526;28;20031;-68
2021/10/09 10:17:45;;;;;;;26.77;11.68;;;15.60;99.90;;;;;;4973203;28;20078;-69
2021/10/09 10:20:22;;;;;;;19.70;10.45;;;15.80;99.90;;;;;;4976965;28;20030;-68
2021/10/09 10:22:50;;;;;;;33.50;11.93;;;15.90;99.90;;;;;;4974060;28;20143;-68
2021/10/09 10:25:26;;;;;;;37.92;12.25;;;16.00;99.90;;;;;;4957391;28;20023;-69
2021/10/09 10:27:59;;;;;;;33.35;10.32;;;16.10;99.90;;;;;;4958710;28;20486;-69
2021/10/09 10:30:28;;;;;;;34.70;11.83;;;16.20;99.90;;;;;;4957319;28;20071;-69
2021/10/09 10:33:18;;;;;;;23.25;9.95;;;16.20;99.90;;;;;;4957259;28;20630;-69
2021/10/09 10:35:44;;;;;;;22.42;9.50;;;16.20;99.90;;;;;;4975126;28;20054;-68
2021/10/09 10:38:12;;;;;;;34.38;10.20;;;16.20;99.90;;;;;;4976513;28;20025;-68
2021/10/09 10:40:56;;;;;;;38.88;11.70;;;16.20;99.90;;;;;;4971790;28;20027;-68
2021/10/09 10:46:33;;;;;;;36.08;10.63;;;16.40;99.90;;;;;;4974158;28;19917;-69
2021/10/09 10:49:17;;;;;;;28.75;10.13;;;16.60;99.90;;;;;;4976944;28;20070;-69
2021/10/09 10:56:58;;;;;;;20.58;10.30;;;17.40;99.90;;;;;;4976065;28;20030;-68
2021/10/09 10:59:35;;;;;;;23.50;9.65;;;17.50;99.90;;;;;;4966870;28;20034;-68
2021/10/09 11:02:08;;;;;;;22.02;10.00;;;17.70;99.90;;;;;;4971000;28;20496;-68
2021/10/09 11:04:35;;;;;;;24.55;10.05;;;17.70;99.90;;;;;;4968129;28;20493;-68
2021/10/09 11:07:02;;;;;;;26.65;10.80;;;17.90;99.90;;;;;;4975967;28;20063;-68
2021/10/09 11:09:28;;;;;;;27.80;9.05;;;18.10;99.90;;;;;;4970195;28;20053;-68
2021/10/09 11:11:53;;;;;;;23.77;9.63;;;18.10;99.90;;;;;;4956649;28;20554;-68
2021/10/09 11:14:23;;;;;;;29.23;8.50;;;18.30;99.90;;;;;;4975722;28;20038;-68
2021/10/09 11:16:57;;;;;;;23.05;9.27;;;18.20;99.90;;;;;;4975980;28;20035;-68
2021/10/09 11:19:49;;;;;;;17.88;8.73;;;18.10;99.90;;;;;;4975851;28;20031;-68
2021/10/09 11:22:20;;;;;;;25.20;9.20;;;18.30;99.90;;;;;;4975353;28;20457;-68
2021/10/09 11:24:50;;;;;;;26.95;9.07;;;18.20;99.90;;;;;;4975826;28;20023;-69
2021/10/09 11:27:17;;;;;;;17.20;9.10;;;18.40;99.90;;;;;;4975225;28;20084;-68
2021/10/09 11:30:02;;;;;;;21.20;7.82;;;18.60;99.90;;;;;;4975518;28;20023;-68
2021/10/09 11:32:32;;;;;;;25.02;9.35;;;18.80;99.90;;;;;;4975508;28;20160;-68
2021/10/09 11:34:58;;;;;;;21.40;8.30;;;18.80;99.90;;;;;;4974964;28;20394;-68
2021/10/09 11:37:25;;;;;;;32.08;10.73;;;19.00;99.90;;;;;;4975224;28;20022;-68
2021/10/09 11:39:52;;;;;;;37.15;10.13;;;19.20;99.90;;;;;;4975328;28;20019;-68
2021/10/09 11:42:22;;;;;;;24.58;9.23;;;19.30;99.90;;;;;;4974886;28;20379;-69
2021/10/09 11:56:07;;;;;;;30.48;10.00;;;19.90;99.90;;;;;;4975358;28;20131;-72
2021/10/09 11:58:42;;;;;;;22.73;10.90;;;20.20;99.90;;;;;;4974718;28;20015;-73
2021/10/09 12:01:23;;;;;;;28.30;9.55;;;20.20;99.90;;;;;;4974666;28;20143;-73
2021/10/09 12:03:48;;;;;;;21.75;8.55;;;20.30;99.90;;;;;;4974942;28;20375;-74
2021/10/09 12:06:14;;;;;;;22.85;9.52;;;20.30;99.90;;;;;;4974840;28;20041;-74
2021/10/09 12:08:54;;;;;;;28.13;8.60;;;20.30;99.90;;;;;;4974846;28;20033;-74
2021/10/09 12:11:19;;;;;;;27.55;10.45;;;20.30;99.90;;;;;;4974154;28;20081;-74
2021/10/09 12:13:52;;;;;;;26.73;9.95;;;20.40;99.90;;;;;;4965188;28;20035;-74
2021/10/09 12:16:32;;;;;;;24.35;10.20;;;20.40;99.90;;;;;;4955748;28;20028;-74
2021/10/09 12:19:04;;;;;;;22.88;9.32;;;20.50;99.90;;;;;;4957907;28;20058;-74
2021/10/09 12:21:35;;;;;;;24.83;9.02;;;20.70;99.90;;;;;;4954211;28;20023;-74
2021/10/09 12:24:21;;;;;;;25.70;8.93;;;20.90;99.90;;;;;;4961135;28;20042;-74
2021/10/09 12:27:07;;;;;;;19.27;8.80;;;21.20;99.90;;;;;;4974930;28;20142;-74
2021/10/09 12:29:36;;;;;;;23.95;8.25;;;21.60;99.90;;;;;;4969162;28;20031;-74
2021/10/09 12:32:14;;;;;;;21.98;8.38;;;21.60;99.90;;;;;;4954780;28;20031;-74
2021/10/09 12:34:39;;;;;;;25.17;9.07;;;22.20;99.90;;;;;;4954760;29;20443;-74
2021/10/09 12:37:27;;;;;;;35.17;9.18;;;22.30;99.90;;;;;;4973456;28;20117;-74
2021/10/09 12:40:06;;;;;;;28.98;8.68;;;22.80;99.90;;;;;;4974497;28;20107;-74
2021/10/09 12:42:32;;;;;;;29.42;8.20;;;23.20;99.90;;;;;;4974377;28;20110;-74
2021/10/09 12:44:58;;;;;;;19.75;8.18;;;23.40;99.90;;;;;;4974318;28;20119;-73
2021/10/09 12:47:23;;;;;;;17.10;8.32;;;23.40;99.90;;;;;;4989190;28;20058;-74
2021/10/09 12:49:49;;;;;;;28.95;9.45;;;23.40;99.90;;;;;;4974261;28;20031;-73
2021/10/09 12:52:16;;;;;;;19.83;9.63;;;23.40;99.90;;;;;;4974081;28;20117;-73
2021/10/09 12:54:42;;;;;;;15.05;8.25;;;23.40;99.90;;;;;;4974461;28;20459;-73
2021/10/09 12:57:08;;;;;;;22.17;8.18;;;23.50;99.90;;;;;;4974271;28;20030;-73
2021/10/09 12:59:35;;;;;;;23.17;7.72;;;23.60;99.90;;;;;;4974297;28;20398;-73
2021/10/09 13:02:01;;;;;;;19.90;7.60;;;23.50;99.90;;;;;;4974518;28;20050;-73
2021/10/09 13:04:27;;;;;;;17.80;7.57;;;23.80;99.90;;;;;;4974811;28;20035;-73
2021/10/09 13:06:53;;;;;;;21.00;7.60;;;24.30;99.90;;;;;;4974216;28;20073;-74
2021/10/09 13:09:18;;;;;;;17.40;8.00;;;24.10;99.90;;;;;;4974282;28;20026;-73
2021/10/09 13:11:50;;;;;;;19.60;7.95;;;24.20;99.90;;;;;;4974095;28;20033;-73
2021/10/09 13:14:16;;;;;;;21.02;8.55;;;24.20;99.90;;;;;;4974388;28;20027;-73
2021/10/09 13:16:42;;;;;;;24.02;8.80;;;24.40;99.90;;;;;;4974162;28;20414;-73
2021/10/09 13:19:07;;;;;;;25.20;9.00;;;24.40;99.90;;;;;;4974077;28;20078;-73
2021/10/09 13:21:33;;;;;;;19.33;8.23;;;24.30;99.90;;;;;;4974023;28;20031;-73
2021/10/09 13:23:59;;;;;;;20.98;7.57;;;23.80;99.90;;;;;;4974329;28;20151;-73
2021/10/09 13:26:25;;;;;;;22.90;9.07;;;23.50;99.90;;;;;;4974021;28;20060;-73
2021/10/09 13:28:50;;;;;;;19.25;8.27;;;23.40;99.90;;;;;;4975100;28;20081;-73
2021/10/09 13:31:16;;;;;;;17.05;7.63;;;23.40;99.90;;;;;;4974126;28;20035;-73
2021/10/09 13:33:41;;;;;;;16.15;7.65;;;23.70;99.90;;;;;;4973890;28;20106;-73
2021/10/09 13:36:07;;;;;;;15.38;7.30;;;23.70;99.90;;;;;;4974476;28;20114;-73
2021/10/09 13:38:34;;;;;;;22.00;7.50;;;23.70;99.90;;;;;;4973934;28;20023;-74
2021/10/09 13:41:00;;;;;;;22.25;7.78;;;23.90;99.90;;;;;;4973889;28;20015;-73
2021/10/09 13:43:26;;;;;;;19.77;7.20;;;24.00;98.60;;;;;;4974504;28;20113;-73
2021/10/09 13:45:51;;;;;;;19.88;7.80;;;23.80;99.90;;;;;;4977443;28;20019;-73
2021/10/09 13:48:17;;;;;;;25.40;8.73;;;23.30;99.90;;;;;;4977392;28;20106;-73
2021/10/09 13:50:51;;;;;;;16.27;7.93;;;22.90;99.90;;;;;;4977291;28;20026;-73
2021/10/09 13:53:17;;;;;;;20.20;7.78;;;22.20;99.90;;;;;;4977491;28;20031;-73
2021/10/09 13:55:43;;;;;;;23.52;7.10;;;21.70;99.90;;;;;;4977272;28;20034;-73
2021/10/09 13:58:12;;;;;;;19.75;7.90;;;21.60;99.90;;;;;;4977490;28;20351;-73
2021/10/09 14:00:39;;;;;;;21.52;8.23;;;21.60;99.90;;;;;;4977130;28;20031;-73
2021/10/09 14:03:05;;;;;;;32.03;7.25;;;21.40;99.90;;;;;;4977143;28;20019;-73
2021/10/09 14:05:32;;;;;;;20.83;7.93;;;21.30;99.90;;;;;;4977359;28;20161;-73
2021/10/09 14:07:57;;;;;;;17.17;7.60;;;21.30;99.90;;;;;;4977366;28;20386;-73
2021/10/09 14:10:23;;;;;;;14.32;7.45;;;21.40;99.90;;;;;;4976986;28;20122;-73
2021/10/09 14:12:49;;;;;;;23.25;7.05;;;21.50;99.90;;;;;;4976883;28;20030;-73
2021/10/09 14:15:15;;;;;;;13.23;7.28;;;21.70;99.90;;;;;;4976847;28;20035;-73
2021/10/09 14:17:40;;;;;;;15.75;7.47;;;22.00;99.90;;;;;;4976903;28;20023;-73
2021/10/09 14:20:08;;;;;;;23.52;7.38;;;22.10;99.90;;;;;;4977126;28;20023;-73
2021/10/09 14:22:35;;;;;;;20.92;6.43;;;22.00;99.90;;;;;;4991746;28;20553;-73
2021/10/09 14:25:01;;;;;;;15.75;6.57;;;22.00;99.90;;;;;;4977016;28;20375;-73
2021/10/09 14:27:30;;;;;;;15.30;6.80;;;22.00;99.90;;;;;;4976732;28;20128;-73
2021/10/09 14:29:56;;;;;;;29.33;7.75;;;21.60;99.90;;;;;;4976683;28;20113;-73
2021/10/09 14:32:22;;;;;;;14.82;6.70;;;21.50;99.90;;;;;;4976684;28;20034;-73
2021/10/09 14:34:48;;;;;;;22.48;7.28;;;21.40;99.90;;;;;;4976767;28;20046;-73
2021/10/09 14:37:13;;;;;;;17.63;6.18;;;21.30;99.90;;;;;;4975307;28;20023;-73
2021/10/09 14:39:39;;;;;;;23.80;6.70;;;21.20;99.90;;;;;;4976736;28;20026;-73
2021/10/09 14:42:05;;;;;;;14.20;7.47;;;21.10;99.90;;;;;;4976381;28;20166;-73
2021/10/09 14:44:31;;;;;;;22.45;7.47;;;21.00;99.90;;;;;;4976372;28;20035;-73
2021/10/09 14:49:34;;;;;;;14.02;6.85;;;20.80;99.90;;;;;;4976585;28;20569;-73
2021/10/09 14:52:25;;;;;;;30.15;7.65;;;20.60;99.90;;;;;;4976204;28;20046;-72
2021/10/09 14:55:07;;;;;;;16.27;7.43;;;20.20;99.90;;;;;;4975911;28;20218;-73
2021/10/09 15:16:41;;;;;;;23.23;7.65;;;17.70;99.90;;;;;;4976421;28;20497;-72
2021/10/09 15:19:06;;;;;;;24.77;6.68;;;17.40;99.90;;;;;;4975918;28;20397;-73
2021/10/09 15:21:32;;;;;;;19.65;6.65;;;17.30;99.90;;;;;;4975928;28;20025;-72
2021/10/09 15:23:57;;;;;;;14.23;6.97;;;17.30;99.90;;;;;;4975663;28;20027;-72
2021/10/09 15:26:23;;;;;;;12.90;7.00;;;17.20;99.90;;;;;;4975650;28;20042;-72
2021/10/09 15:28:48;;;;;;;15.07;6.15;;;17.10;99.90;;;;;;4975870;28;20143;-72